createdAt,value
2022-10-31T00:03:03.722Z,93.75
2022-10-31T00:08:05.542Z,93.25
2022-10-31T00:13:07.877Z,94.91
2022-10-31T00:18:10.430Z,95.11
2022-10-31T00:23:12.341Z,95.90
2022-10-31T00:28:14.051Z,97.59
2022-10-31T00:33:15.852Z,97.95
2022-10-31T00:38:17.734Z,97.29
2022-10-31T00:43:19.391Z,97.10
2022-10-31T00:48:21.111Z,97.62
2022-10-31T00:53:24.167Z,98.38
2022-10-31T00:58:26.018Z,98.42
2022-10-31T01:03:29.934Z,97.08
2022-10-31T01:08:31.595Z,97.65
2022-10-31T01:13:33.352Z,97.43
2022-10-31T01:18:36.893Z,97.70
2022-10-31T01:23:38.567Z,97.46
2022-10-31T01:28:44.420Z,97.33
2022-10-31T01:33:46.109Z,97.01
2022-10-31T01:38:48.112Z,96.96
2022-10-31T01:43:55.666Z,96.80
2022-10-31T01:48:57.853Z,98.18
2022-10-31T01:54:01.838Z,98.76
2022-10-31T01:59:03.493Z,97.79
2022-10-31T02:04:05.551Z,98.56
2022-10-31T02:09:07.283Z,99.62
2022-10-31T02:14:08.936Z,99.64
2022-10-31T02:19:11.121Z,100.00
2022-10-31T02:24:41.899Z,100.00
2022-10-31T02:30:00.869Z,100.00
2022-10-31T02:35:18.565Z,99.47
2022-10-31T02:40:28.116Z,100.00
2022-10-31T02:46:08.653Z,99.40
2022-10-31T02:51:10.823Z,98.39
2022-10-31T02:56:13.566Z,97.09
2022-10-31T03:01:18.181Z,96.67
2022-10-31T03:06:31.846Z,97.47
2022-10-31T03:11:59.175Z,95.89
2022-10-31T03:17:02.019Z,97.85
2022-10-31T03:22:17.779Z,98.87
2022-10-31T03:27:21.579Z,100.00
2022-10-31T03:32:37.655Z,100.00
2022-10-31T03:37:39.427Z,100.00
2022-10-31T03:42:49.691Z,100.00
2022-10-31T03:47:51.403Z,100.00
2022-10-31T03:52:59.259Z,100.00
2022-10-31T03:58:13.732Z,100.00
2022-10-31T04:03:18.567Z,100.00
2022-10-31T04:08:27.612Z,100.00
2022-10-31T04:13:31.530Z,100.00
2022-10-31T04:18:40.684Z,100.00
2022-10-31T04:23:42.371Z,99.79
2022-10-31T04:28:54.535Z,98.67
2022-10-31T04:33:56.306Z,100.00
2022-10-31T04:38:58.479Z,99.99
2022-10-31T04:44:22.258Z,100.00
2022-10-31T04:49:26.983Z,100.00
2022-10-31T04:54:28.667Z,99.13
2022-10-31T05:00:05.990Z,100.00
2022-10-31T05:05:09.738Z,100.00
2022-10-31T05:10:12.706Z,100.00
2022-10-31T05:15:14.819Z,100.00
2022-10-31T05:20:29.635Z,100.00
2022-10-31T05:25:42.083Z,100.00
2022-10-31T05:30:43.911Z,100.00
2022-10-31T05:35:49.070Z,100.00
2022-10-31T05:41:11.989Z,99.69
2022-10-31T05:46:17.689Z,99.96
2022-10-31T05:51:38.041Z,100.00
2022-10-31T05:56:39.775Z,99.66
2022-10-31T06:01:41.608Z,99.91
2022-10-31T06:06:58.107Z,100.00
2022-10-31T06:12:00.417Z,100.00
2022-10-31T06:17:02.118Z,100.00
2022-10-31T06:22:35.989Z,100.00
2022-10-31T06:27:37.719Z,99.20
2022-10-31T06:32:45.946Z,100.00
2022-10-31T06:37:54.465Z,100.00
2022-10-31T06:43:06.165Z,100.00
2022-10-31T06:48:23.741Z,100.00
2022-10-31T06:53:49.441Z,100.00
2022-10-31T06:58:52.207Z,100.00
2022-10-31T07:04:04.996Z,100.00
2022-10-31T07:09:09.794Z,100.00
2022-10-31T07:14:11.504Z,100.00
2022-10-31T07:19:13.282Z,100.00
2022-10-31T07:24:15.381Z,100.00
2022-10-31T07:29:17.035Z,99.29
2022-10-31T07:34:18.888Z,97.10
2022-10-31T07:39:49.929Z,97.64
2022-10-31T07:44:53.913Z,97.20
2022-10-31T07:50:25.367Z,95.89
2022-10-31T07:55:45.815Z,96.47
2022-10-31T08:00:49.030Z,95.62
2022-10-31T08:06:00.814Z,96.78
2022-10-31T08:11:22.861Z,97.23
2022-10-31T08:16:24.651Z,96.86
2022-10-31T08:21:31.946Z,97.84
2022-10-31T08:26:34.133Z,97.97
2022-10-31T08:31:38.937Z,97.57
2022-10-31T08:37:02.984Z,98.19
2022-10-31T08:42:12.221Z,98.06
2022-10-31T08:47:13.940Z,97.89
2022-10-31T08:52:16.079Z,95.91
2022-10-31T08:57:19.595Z,94.66
2022-10-31T09:02:22.881Z,93.98
2022-10-31T09:07:27.908Z,95.24
2022-10-31T09:12:29.856Z,95.08
2022-10-31T09:17:50.460Z,94.06
2022-10-31T09:23:20.187Z,93.96
2022-10-31T09:28:23.457Z,94.47
2022-10-31T09:33:25.431Z,94.47
2022-10-31T09:38:47.093Z,94.06
2022-10-31T09:43:55.010Z,94.11
2022-10-31T09:49:18.500Z,94.80
2022-10-31T09:54:44.171Z,96.26
2022-10-31T09:59:46.082Z,96.24
2022-10-31T10:05:10.851Z,96.47
2022-10-31T10:10:54.542Z,95.03
2022-10-31T10:16:39.405Z,95.79
2022-10-31T10:21:52.231Z,95.34
2022-10-31T10:27:02.823Z,95.54
2022-10-31T10:32:11.593Z,95.25
2022-10-31T10:37:29.352Z,94.29
2022-10-31T10:42:49.684Z,94.87
2022-10-31T10:47:58.027Z,94.75
2022-10-31T10:53:07.777Z,94.30
2022-10-31T10:58:09.697Z,93.67
2022-10-31T11:03:11.916Z,90.74
2022-10-31T11:08:30.861Z,91.34
2022-10-31T11:13:32.766Z,90.55
2022-10-31T11:18:37.872Z,88.69
2022-10-31T11:23:39.566Z,84.15
2022-10-31T11:28:41.275Z,83.61
2022-10-31T11:33:47.791Z,84.82
2022-10-31T11:38:49.605Z,83.99
2022-10-31T11:44:12.352Z,86.03
2022-10-31T11:49:41.889Z,85.16
2022-10-31T11:54:47.704Z,84.59
2022-10-31T11:59:57.227Z,75.44
2022-10-31T12:05:22.456Z,68.98
2022-10-31T12:10:41.364Z,73.02
2022-10-31T12:15:47.106Z,69.15
2022-10-31T12:20:55.868Z,67.88
2022-10-31T12:26:17.367Z,69.22
2022-10-31T12:31:37.683Z,69.16
2022-10-31T12:36:55.061Z,69.19
2022-10-31T12:42:18.366Z,69.40
2022-10-31T12:47:34.389Z,71.80
2022-10-31T12:52:48.098Z,73.61
2022-10-31T12:57:53.155Z,74.08
2022-10-31T13:03:01.457Z,74.04
2022-10-31T13:08:19.817Z,74.55
2022-10-31T13:13:31.529Z,74.76
2022-10-31T13:18:35.792Z,76.33
2022-10-31T13:23:50.804Z,76.64
2022-10-31T13:29:22.617Z,77.41
2022-10-31T13:34:35.157Z,77.22
2022-10-31T13:39:52.020Z,77.13
2022-10-31T13:44:53.699Z,80.26
2022-10-31T13:50:19.732Z,82.30
2022-10-31T13:55:36.871Z,83.70
2022-10-31T14:00:38.636Z,84.38
2022-10-31T14:05:40.329Z,84.25
2022-10-31T14:10:48.338Z,87.08
2022-10-31T14:15:57.490Z,87.76
2022-10-31T14:20:59.147Z,88.50
2022-10-31T14:26:27.457Z,89.58
2022-10-31T14:31:33.015Z,90.35
2022-10-31T14:37:00.558Z,91.57
2022-10-31T14:42:26.453Z,92.97
2022-10-31T14:48:08.009Z,93.53
2022-10-31T14:53:14.875Z,95.71
2022-10-31T14:58:19.644Z,97.26
2022-10-31T15:03:34.486Z,97.78
2022-10-31T15:08:38.642Z,99.13
2022-10-31T15:13:50.734Z,100.00
2022-10-31T15:19:05.891Z,100.00
2022-10-31T15:24:11.974Z,99.41
2022-10-31T15:29:15.876Z,100.00
2022-10-31T15:34:23.637Z,100.00
2022-10-31T15:39:25.332Z,100.00
2022-10-31T15:44:32.837Z,99.88
2022-10-31T15:49:42.169Z,100.00
2022-10-31T15:54:49.864Z,100.00
2022-10-31T15:59:51.652Z,100.00
2022-10-31T16:05:01.973Z,100.00
2022-10-31T16:10:04.644Z,100.00
2022-10-31T16:15:06.671Z,100.00
2022-10-31T16:20:08.634Z,100.00
2022-10-31T16:25:15.058Z,100.00
2022-10-31T16:30:41.731Z,100.00
2022-10-31T16:35:45.837Z,100.00
2022-10-31T16:40:48.074Z,100.00
2022-10-31T16:45:51.158Z,100.00
2022-10-31T16:50:52.833Z,100.00
2022-10-31T16:55:58.983Z,100.00
2022-10-31T17:01:06.072Z,100.00
2022-10-31T17:06:11.785Z,100.00
2022-10-31T17:11:18.829Z,100.00
2022-10-31T17:16:20.557Z,100.00
2022-10-31T17:21:23.279Z,100.00
2022-10-31T17:26:24.965Z,100.00
2022-10-31T17:31:31.091Z,100.00
2022-10-31T17:36:33.562Z,100.00
2022-10-31T17:41:35.292Z,100.00
2022-10-31T17:46:37.258Z,100.00
2022-10-31T17:51:38.984Z,100.00
2022-10-31T17:56:40.659Z,100.00
2022-10-31T18:01:42.517Z,100.00
2022-10-31T18:06:44.358Z,100.00
2022-10-31T18:11:46.126Z,100.00
2022-10-31T18:16:47.830Z,100.00
2022-10-31T18:21:49.573Z,100.00
2022-10-31T18:26:51.362Z,100.00
2022-10-31T18:31:54.290Z,100.00
2022-10-31T18:36:55.953Z,100.00
2022-10-31T18:41:57.673Z,100.00
2022-10-31T18:46:59.367Z,100.00
2022-10-31T18:52:01.071Z,100.00
2022-10-31T18:57:02.752Z,100.00
2022-10-31T19:02:04.516Z,100.00
2022-10-31T19:07:06.382Z,100.00
2022-10-31T19:12:08.097Z,100.00
2022-10-31T19:17:09.774Z,100.00
2022-10-31T19:22:11.460Z,100.00
2022-10-31T19:27:13.391Z,100.00
2022-10-31T19:32:15.282Z,100.00
2022-10-31T19:37:17.005Z,100.00
2022-10-31T19:42:18.681Z,100.00
2022-10-31T19:47:20.404Z,100.00
2022-10-31T19:52:23.261Z,100.00
2022-10-31T19:57:48.477Z,100.00
2022-10-31T20:02:46.559Z,100.00
2022-10-31T20:07:48.232Z,100.00
2022-10-31T20:12:49.895Z,100.00
2022-10-31T20:17:51.574Z,100.00
2022-10-31T20:22:53.447Z,100.00
2022-10-31T20:27:55.224Z,100.00
2022-10-31T20:32:56.945Z,100.00
2022-10-31T20:37:58.788Z,100.00
2022-10-31T20:43:01.353Z,100.00
2022-10-31T20:48:03.333Z,100.00
2022-10-31T20:53:05.899Z,100.00
2022-10-31T20:58:07.573Z,100.00
2022-10-31T21:03:09.311Z,100.00
2022-10-31T21:08:10.986Z,100.00
2022-10-31T21:13:12.663Z,100.00
2022-10-31T21:18:14.766Z,100.00
2022-10-31T21:23:16.474Z,100.00
2022-10-31T21:28:18.175Z,100.00
2022-10-31T21:33:19.952Z,100.00
2022-10-31T21:38:21.719Z,100.00
2022-10-31T21:43:23.401Z,100.00
2022-10-31T21:48:28.886Z,100.00
2022-10-31T21:53:49.341Z,100.00
2022-10-31T21:58:51.500Z,100.00
2022-10-31T22:03:53.195Z,100.00
2022-10-31T22:08:54.997Z,100.00
2022-10-31T22:13:58.366Z,100.00
2022-10-31T22:19:00.204Z,100.00
2022-10-31T22:24:04.976Z,100.00
2022-10-31T22:29:11.113Z,100.00
2022-10-31T22:34:12.860Z,100.00
2022-10-31T22:39:14.578Z,100.00
2022-10-31T22:44:16.309Z,100.00
2022-10-31T22:49:18.391Z,100.00
2022-10-31T22:54:20.147Z,100.00
2022-10-31T22:59:21.806Z,100.00
2022-10-31T23:04:23.596Z,100.00
2022-10-31T23:09:25.283Z,100.00
2022-10-31T23:14:27.009Z,100.00
2022-10-31T23:19:29.709Z,100.00
2022-10-31T23:24:39.447Z,100.00
2022-10-31T23:29:45.060Z,100.00
2022-10-31T23:34:47.333Z,100.00
2022-10-31T23:39:49.040Z,100.00
2022-10-31T23:44:50.764Z,100.00
2022-10-31T23:49:52.506Z,100.00
2022-10-31T23:54:54.274Z,100.00
2022-10-31T23:59:55.978Z,100.00
